createdAt,value
2023-03-03T00:00:55.065Z,1023.61
2023-03-03T00:01:55.229Z,1023.58
2023-03-03T00:02:55.084Z,1023.6
2023-03-03T00:03:55.085Z,1023.57
2023-03-03T00:04:55.088Z,1023.59
2023-03-03T00:05:55.088Z,1023.53
2023-03-03T00:06:55.093Z,1023.54
2023-03-03T00:07:55.118Z,1023.57
2023-03-03T00:08:55.088Z,1023.57
2023-03-03T00:09:55.089Z,1023.56
2023-03-03T00:10:55.085Z,1023.6
2023-03-03T00:11:55.101Z,1023.56
2023-03-03T00:12:55.100Z,1023.57
2023-03-03T00:13:55.106Z,1023.54
2023-03-03T00:14:55.092Z,1023.51
2023-03-03T00:15:55.107Z,1023.52
2023-03-03T00:16:55.096Z,1023.49
2023-03-03T00:17:55.125Z,1023.48
2023-03-03T00:18:55.080Z,1023.5
2023-03-03T00:19:55.092Z,1023.56
2023-03-03T00:20:55.101Z,1023.56
2023-03-03T00:21:55.092Z,1023.57
2023-03-03T00:22:55.096Z,1023.6
2023-03-03T00:23:55.116Z,1023.51
2023-03-03T00:24:55.093Z,1023.45
2023-03-03T00:25:55.092Z,1023.44
2023-03-03T00:26:55.090Z,1023.44
2023-03-03T00:27:55.098Z,1023.45
2023-03-03T00:28:55.088Z,1023.49
2023-03-03T00:29:55.078Z,1023.47
2023-03-03T00:30:55.191Z,1023.51
2023-03-03T00:31:55.132Z,1023.49
2023-03-03T00:32:55.106Z,1023.5
2023-03-03T00:33:55.088Z,1023.5
2023-03-03T00:34:55.086Z,1023.5
2023-03-03T00:35:55.188Z,1023.52
2023-03-03T00:36:55.085Z,1023.56
2023-03-03T00:37:55.102Z,1023.56
2023-03-03T00:38:55.085Z,1023.57
2023-03-03T00:39:55.094Z,1023.52
2023-03-03T00:40:55.093Z,1023.62
2023-03-03T00:41:55.092Z,1023.61
2023-03-03T00:42:55.173Z,1023.62
2023-03-03T00:43:55.103Z,1023.6
2023-03-03T00:44:55.095Z,1023.62
2023-03-03T00:45:55.124Z,1023.64
2023-03-03T00:46:55.127Z,1023.61
2023-03-03T00:47:55.115Z,1023.6
2023-03-03T00:48:55.100Z,1023.61
2023-03-03T00:49:55.088Z,1023.58
2023-03-03T00:50:55.089Z,1023.6
2023-03-03T00:51:55.085Z,1023.6
2023-03-03T00:52:55.112Z,1023.56
2023-03-03T00:53:55.091Z,1023.57
2023-03-03T00:54:55.083Z,1023.56
2023-03-03T00:55:55.090Z,1023.57
2023-03-03T00:56:55.091Z,1023.54
2023-03-03T00:57:55.114Z,1023.58
2023-03-03T00:58:55.094Z,1023.57
2023-03-03T00:59:55.089Z,1023.57
2023-03-03T01:00:55.085Z,1023.54
2023-03-03T01:01:55.147Z,1023.58
2023-03-03T01:02:55.342Z,1023.59
2023-03-03T01:03:55.118Z,1023.6
2023-03-03T01:04:55.094Z,1023.6
2023-03-03T01:05:55.148Z,1023.61
2023-03-03T01:06:55.084Z,1023.65
2023-03-03T01:07:55.104Z,1023.62
2023-03-03T01:08:55.099Z,1023.62
2023-03-03T01:09:55.091Z,1023.64
2023-03-03T01:10:55.098Z,1023.61
2023-03-03T01:11:55.091Z,1023.61
2023-03-03T01:12:55.107Z,1023.58
2023-03-03T01:13:55.211Z,1023.58
2023-03-03T01:14:55.090Z,1023.59
2023-03-03T01:15:55.151Z,1023.58
2023-03-03T01:16:55.086Z,1023.53
2023-03-03T01:17:55.099Z,1023.48
2023-03-03T01:18:55.096Z,1023.44
2023-03-03T01:19:55.085Z,1023.45
2023-03-03T01:20:55.095Z,1023.42
2023-03-03T01:21:55.094Z,1023.48
2023-03-03T01:22:55.100Z,1023.46
2023-03-03T01:23:55.110Z,1023.46
2023-03-03T01:24:55.094Z,1023.49
2023-03-03T01:25:55.086Z,1023.53
2023-03-03T01:26:55.086Z,1023.47
2023-03-03T01:27:55.100Z,1023.5
2023-03-03T01:28:55.086Z,1023.5
2023-03-03T01:29:55.089Z,1023.52
2023-03-03T01:30:55.148Z,1023.53
2023-03-03T01:31:55.129Z,1023.54
2023-03-03T01:32:55.102Z,1023.54
2023-03-03T01:33:55.108Z,1023.52
2023-03-03T01:34:55.092Z,1023.56
2023-03-03T01:35:55.107Z,1023.54
2023-03-03T01:36:55.072Z,1023.49
2023-03-03T01:37:55.090Z,1023.51
2023-03-03T01:38:55.105Z,1023.5
2023-03-03T01:39:55.097Z,1023.52
2023-03-03T01:40:55.090Z,1023.57
2023-03-03T01:41:55.090Z,1023.63
2023-03-03T01:42:55.090Z,1023.62
2023-03-03T01:43:55.111Z,1023.66
2023-03-03T01:44:55.122Z,1023.66
2023-03-03T01:45:55.088Z,1023.63
2023-03-03T01:46:55.092Z,1023.61
2023-03-03T01:47:55.088Z,1023.63
2023-03-03T01:48:55.101Z,1023.65
2023-03-03T01:49:55.083Z,1023.63
2023-03-03T01:50:55.106Z,1023.64
2023-03-03T01:51:55.094Z,1023.62
2023-03-03T01:52:55.093Z,1023.62
2023-03-03T01:53:55.114Z,1023.61
2023-03-03T01:54:55.089Z,1023.57
2023-03-03T01:55:55.106Z,1023.6
2023-03-03T01:56:55.092Z,1023.57
2023-03-03T01:57:55.090Z,1023.56
2023-03-03T01:58:55.106Z,1023.51
2023-03-03T01:59:55.093Z,1023.52
2023-03-03T02:00:55.082Z,1023.56
2023-03-03T02:01:55.149Z,1023.57
2023-03-03T02:02:55.189Z,1023.56
2023-03-03T02:03:55.109Z,1023.59
2023-03-03T02:04:55.080Z,1023.6
2023-03-03T02:05:55.091Z,1023.57
2023-03-03T02:06:55.095Z,1023.53
2023-03-03T02:07:55.096Z,1023.53
2023-03-03T02:08:55.101Z,1023.53
2023-03-03T02:09:55.080Z,1023.52
2023-03-03T02:10:55.082Z,1023.53
2023-03-03T02:11:55.100Z,1023.54
2023-03-03T02:12:55.099Z,1023.54
2023-03-03T02:13:55.104Z,1023.51
2023-03-03T02:14:55.086Z,1023.51
2023-03-03T02:15:55.123Z,1023.49
2023-03-03T02:16:55.090Z,1023.46
2023-03-03T02:17:55.094Z,1023.43
2023-03-03T02:18:55.110Z,1023.43
2023-03-03T02:19:55.086Z,1023.39
2023-03-03T02:20:55.093Z,1023.41
2023-03-03T02:21:55.095Z,1023.42
2023-03-03T02:22:55.091Z,1023.39
2023-03-03T02:23:55.112Z,1023.35
2023-03-03T02:24:55.093Z,1023.36
2023-03-03T02:25:56.876Z,1023.4
2023-03-03T02:26:55.106Z,1023.39
2023-03-03T02:27:55.093Z,1023.45
2023-03-03T02:28:55.099Z,1023.42
2023-03-03T02:29:55.089Z,1023.48
2023-03-03T02:30:55.092Z,1023.48
2023-03-03T02:31:55.177Z,1023.46
2023-03-03T02:32:55.099Z,1023.47
2023-03-03T02:33:55.116Z,1023.47
2023-03-03T02:34:55.094Z,1023.47
2023-03-03T02:35:55.135Z,1023.45
2023-03-03T02:36:55.087Z,1023.45
2023-03-03T02:37:55.108Z,1023.41
2023-03-03T02:38:55.116Z,1023.42
2023-03-03T02:39:55.088Z,1023.4
2023-03-03T02:40:55.096Z,1023.39
2023-03-03T02:41:55.096Z,1023.35
2023-03-03T02:42:55.095Z,1023.38
2023-03-03T02:43:55.117Z,1023.37
2023-03-03T02:44:55.118Z,1023.35
2023-03-03T02:45:55.124Z,1023.34
2023-03-03T02:46:55.092Z,1023.39
2023-03-03T02:47:55.092Z,1023.38
2023-03-03T02:48:55.103Z,1023.41
2023-03-03T02:49:55.110Z,1023.38
2023-03-03T02:50:55.106Z,1023.35
2023-03-03T02:51:55.095Z,1023.37
2023-03-03T02:52:55.092Z,1023.35
2023-03-03T02:53:55.110Z,1023.37
2023-03-03T02:54:55.083Z,1023.37
2023-03-03T02:55:55.097Z,1023.38
2023-03-03T02:56:55.099Z,1023.41
2023-03-03T02:57:55.089Z,1023.43
2023-03-03T02:58:55.102Z,1023.45
2023-03-03T02:59:55.102Z,1023.45
2023-03-03T03:00:55.113Z,1023.44
2023-03-03T03:01:55.096Z,1023.43
2023-03-03T03:02:55.094Z,1023.47
2023-03-03T03:03:55.183Z,1023.43
2023-03-03T03:04:55.092Z,1023.39
2023-03-03T03:05:55.094Z,1023.34
2023-03-03T03:06:55.090Z,1023.41
2023-03-03T03:07:55.087Z,1023.43
2023-03-03T03:08:55.104Z,1023.43
2023-03-03T03:09:55.086Z,1023.43
2023-03-03T03:10:55.094Z,1023.41
2023-03-03T03:11:55.102Z,1023.41
2023-03-03T03:12:55.083Z,1023.4
2023-03-03T03:13:55.105Z,1023.37
2023-03-03T03:14:55.083Z,1023.42
2023-03-03T03:15:55.086Z,1023.4
2023-03-03T03:16:55.163Z,1023.43
2023-03-03T03:17:55.100Z,1023.43
2023-03-03T03:18:55.107Z,1023.44
2023-03-03T03:19:55.088Z,1023.42
2023-03-03T03:20:55.084Z,1023.41
2023-03-03T03:21:55.101Z,1023.41
2023-03-03T03:22:55.089Z,1023.45
2023-03-03T03:23:55.109Z,1023.43
2023-03-03T03:24:55.092Z,1023.44
2023-03-03T03:25:55.094Z,1023.48
2023-03-03T03:26:55.101Z,1023.49
2023-03-03T03:27:55.096Z,1023.53
2023-03-03T03:28:55.114Z,1023.56
2023-03-03T03:29:55.100Z,1023.56
2023-03-03T03:30:55.147Z,1023.6
2023-03-03T03:31:55.169Z,1023.6
2023-03-03T03:32:55.090Z,1023.6
2023-03-03T03:33:55.120Z,1023.61
2023-03-03T03:34:55.082Z,1023.61
2023-03-03T03:35:55.142Z,1023.63
2023-03-03T03:36:55.092Z,1023.61
2023-03-03T03:37:55.090Z,1023.6
2023-03-03T03:38:55.115Z,1023.62
2023-03-03T03:39:55.093Z,1023.59
2023-03-03T03:40:55.100Z,1023.58
2023-03-03T03:41:55.112Z,1023.58
2023-03-03T03:42:55.094Z,1023.6
2023-03-03T03:43:55.103Z,1023.63
2023-03-03T03:44:55.089Z,1023.65
2023-03-03T03:45:55.113Z,1023.66
2023-03-03T03:46:55.082Z,1023.66
2023-03-03T03:47:55.081Z,1023.63
2023-03-03T03:48:55.109Z,1023.63
2023-03-03T03:49:55.087Z,1023.64
2023-03-03T03:50:55.095Z,1023.67
2023-03-03T03:51:55.092Z,1023.65
2023-03-03T03:52:55.079Z,1023.62
2023-03-03T03:53:55.109Z,1023.65
2023-03-03T03:54:55.092Z,1023.64
2023-03-03T03:55:55.090Z,1023.64
2023-03-03T03:56:55.100Z,1023.62
2023-03-03T03:57:55.104Z,1023.6
2023-03-03T03:58:55.114Z,1023.58
2023-03-03T03:59:55.096Z,1023.58
2023-03-03T04:00:55.090Z,1023.57
2023-03-03T04:01:55.098Z,1023.59
2023-03-03T04:02:55.262Z,1023.6
2023-03-03T04:03:55.116Z,1023.62
2023-03-03T04:04:55.091Z,1023.62
2023-03-03T04:05:55.103Z,1023.66
2023-03-03T04:06:55.100Z,1023.63
2023-03-03T04:07:55.103Z,1023.69
2023-03-03T04:08:55.109Z,1023.69
2023-03-03T04:09:55.092Z,1023.7
2023-03-03T04:10:55.097Z,1023.66
2023-03-03T04:11:55.102Z,1023.65
2023-03-03T04:12:55.097Z,1023.68
2023-03-03T04:13:55.122Z,1023.66
2023-03-03T04:14:55.093Z,1023.66
2023-03-03T04:15:55.196Z,1023.66
2023-03-03T04:16:55.101Z,1023.65
2023-03-03T04:17:55.097Z,1023.67
2023-03-03T04:18:55.112Z,1023.69
2023-03-03T04:19:55.118Z,1023.74
2023-03-03T04:20:55.102Z,1023.78
2023-03-03T04:21:55.104Z,1023.78
2023-03-03T04:22:55.100Z,1023.78
2023-03-03T04:23:55.114Z,1023.77
2023-03-03T04:24:55.094Z,1023.72
2023-03-03T04:25:55.105Z,1023.77
2023-03-03T04:26:55.099Z,1023.83
2023-03-03T04:27:55.097Z,1023.85
2023-03-03T04:28:55.098Z,1023.83
2023-03-03T04:29:55.100Z,1023.83
2023-03-03T04:30:55.124Z,1023.86
2023-03-03T04:31:55.167Z,1023.87
2023-03-03T04:32:55.098Z,1023.84
2023-03-03T04:33:55.104Z,1023.86
2023-03-03T04:35:05.758Z,1023.88
2023-03-03T04:35:55.184Z,1023.87
2023-03-03T04:36:55.097Z,1023.88
2023-03-03T04:37:55.093Z,1023.92
2023-03-03T04:38:55.107Z,1023.95
2023-03-03T04:39:55.097Z,1023.94
2023-03-03T04:40:55.105Z,1023.94
2023-03-03T04:41:55.105Z,1023.95
2023-03-03T04:42:55.101Z,1023.91
2023-03-03T04:43:55.106Z,1023.92
2023-03-03T04:44:55.128Z,1023.91
2023-03-03T04:45:55.160Z,1023.87
2023-03-03T04:46:55.098Z,1023.85
2023-03-03T04:47:55.099Z,1023.86
2023-03-03T04:48:55.116Z,1023.89
2023-03-03T04:49:55.098Z,1023.9
2023-03-03T04:50:55.112Z,1023.89
2023-03-03T04:51:55.091Z,1023.93
2023-03-03T04:52:55.105Z,1023.94
2023-03-03T04:53:55.122Z,1023.88
2023-03-03T04:54:55.132Z,1023.93
2023-03-03T04:55:55.100Z,1023.92
2023-03-03T04:56:55.098Z,1023.94
2023-03-03T04:57:55.092Z,1023.95
2023-03-03T04:58:55.111Z,1023.97
2023-03-03T04:59:55.111Z,1024.05
2023-03-03T05:00:55.105Z,1024.06
2023-03-03T05:01:55.128Z,1024.12
2023-03-03T05:02:55.098Z,1024.12
2023-03-03T05:03:55.288Z,1024.12
2023-03-03T05:04:55.188Z,1024.14
2023-03-03T05:05:55.102Z,1024.16
2023-03-03T05:06:55.095Z,1024.21
2023-03-03T05:07:55.096Z,1024.13
2023-03-03T05:08:55.094Z,1024.13
2023-03-03T05:09:55.111Z,1024.17
2023-03-03T05:10:55.111Z,1024.11
2023-03-03T05:11:55.096Z,1024.09
2023-03-03T05:12:55.085Z,1024.08
2023-03-03T05:13:55.089Z,1024.09
2023-03-03T05:14:55.127Z,1024.06
2023-03-03T05:15:55.157Z,1024.08
2023-03-03T05:16:55.092Z,1024.09
2023-03-03T05:17:55.089Z,1024.05
2023-03-03T05:18:55.089Z,1024.05
2023-03-03T05:19:55.104Z,1023.99
2023-03-03T05:20:55.092Z,1024.06
2023-03-03T05:21:55.098Z,1024.03
2023-03-03T05:22:55.082Z,1024.04
2023-03-03T05:23:55.092Z,1024.01
2023-03-03T05:24:55.101Z,1024.05
2023-03-03T05:25:55.087Z,1024.01
2023-03-03T05:26:55.095Z,1024
2023-03-03T05:27:55.086Z,1023.99
2023-03-03T05:28:55.086Z,1023.99
2023-03-03T05:29:55.099Z,1023.97
2023-03-03T05:30:55.213Z,1024.08
2023-03-03T05:31:55.139Z,1024.04
2023-03-03T05:32:55.095Z,1024.03
2023-03-03T05:33:55.097Z,1023.97
2023-03-03T05:34:55.104Z,1023.96
2023-03-03T05:35:55.273Z,1023.94
2023-03-03T05:36:55.087Z,1023.95
2023-03-03T05:37:55.097Z,1023.94
2023-03-03T05:38:55.100Z,1023.91
2023-03-03T05:39:55.097Z,1023.92
2023-03-03T05:40:55.084Z,1023.94
2023-03-03T05:41:55.089Z,1023.86
2023-03-03T05:42:55.116Z,1023.9
2023-03-03T05:43:55.090Z,1023.89
2023-03-03T05:44:55.101Z,1023.91
2023-03-03T05:45:55.095Z,1023.87
2023-03-03T05:46:55.140Z,1023.85
2023-03-03T05:47:55.089Z,1023.9
2023-03-03T05:48:55.095Z,1023.99
2023-03-03T05:49:55.119Z,1023.96
2023-03-03T05:50:55.096Z,1023.96
2023-03-03T05:51:55.097Z,1023.95
2023-03-03T05:52:55.087Z,1023.93
2023-03-03T05:53:56.538Z,1023.93
2023-03-03T05:54:55.109Z,1023.9
2023-03-03T05:55:55.096Z,1023.86
2023-03-03T05:56:55.089Z,1023.84
2023-03-03T05:57:55.092Z,1023.89
2023-03-03T05:58:55.082Z,1023.92
2023-03-03T05:59:55.106Z,1023.96
2023-03-03T06:00:55.098Z,1024.04
2023-03-03T06:01:55.125Z,1023.99
2023-03-03T06:02:55.139Z,1023.99
2023-03-03T06:03:55.094Z,1023.97
2023-03-03T06:04:55.109Z,1023.97
2023-03-03T06:05:55.087Z,1024
2023-03-03T06:06:55.094Z,1024.05
2023-03-03T06:07:55.094Z,1024.01
2023-03-03T06:08:57.126Z,1024.01
2023-03-03T06:09:55.108Z,1024.03
2023-03-03T06:10:55.090Z,1024.01
2023-03-03T06:11:55.093Z,1024.01
2023-03-03T06:12:55.102Z,1024.03
2023-03-03T06:13:55.098Z,1023.97
2023-03-03T06:14:55.111Z,1024
2023-03-03T06:15:55.087Z,1023.98
2023-03-03T06:16:55.108Z,1023.96
2023-03-03T06:17:55.096Z,1023.91
2023-03-03T06:18:55.102Z,1023.93
2023-03-03T06:19:55.112Z,1023.95
2023-03-03T06:20:55.098Z,1023.94
2023-03-03T06:21:55.094Z,1023.9
2023-03-03T06:22:55.099Z,1023.97
2023-03-03T06:23:55.097Z,1024
2023-03-03T06:24:55.137Z,1024.06
2023-03-03T06:25:55.094Z,1024.07
2023-03-03T06:26:55.101Z,1024.07
2023-03-03T06:27:55.100Z,1024.07
2023-03-03T06:28:55.102Z,1024.11
2023-03-03T06:29:55.116Z,1024.05
2023-03-03T06:30:55.127Z,1024.1
2023-03-03T06:31:55.226Z,1024.09
2023-03-03T06:32:55.091Z,1024.13
2023-03-03T06:33:55.090Z,1024.18
2023-03-03T06:34:55.107Z,1024.15
2023-03-03T06:35:55.179Z,1024.14
2023-03-03T06:36:55.075Z,1024.08
2023-03-03T06:37:55.088Z,1024.13
2023-03-03T06:38:55.091Z,1024.12
2023-03-03T06:39:55.120Z,1024.09
2023-03-03T06:40:55.093Z,1024.03
2023-03-03T06:41:55.086Z,1024.07
2023-03-03T06:42:55.086Z,1024.07
2023-03-03T06:43:55.090Z,1024.05
2023-03-03T06:44:55.109Z,1024.1
2023-03-03T06:45:55.136Z,1024.13
2023-03-03T06:46:55.083Z,1024.18
2023-03-03T06:47:55.084Z,1024.21
2023-03-03T06:48:55.108Z,1024.24
2023-03-03T06:49:55.113Z,1024.31
2023-03-03T06:50:55.090Z,1024.27
2023-03-03T06:51:55.091Z,1024.34
2023-03-03T06:52:55.088Z,1024.38
2023-03-03T06:53:55.094Z,1024.43
2023-03-03T06:54:55.109Z,1024.42
2023-03-03T06:55:55.097Z,1024.49
2023-03-03T06:56:55.094Z,1024.53
2023-03-03T06:57:55.089Z,1024.55
2023-03-03T06:58:55.089Z,1024.62
2023-03-03T06:59:55.098Z,1024.61
2023-03-03T07:00:55.101Z,1024.58
2023-03-03T07:01:55.093Z,1024.57
2023-03-03T07:02:55.092Z,1024.65
2023-03-03T07:03:55.171Z,1024.62
2023-03-03T07:04:55.109Z,1024.58
2023-03-03T07:05:55.096Z,1024.6
2023-03-03T07:06:55.104Z,1024.64
2023-03-03T07:07:55.083Z,1024.63
2023-03-03T07:08:55.111Z,1024.63
2023-03-03T07:09:55.134Z,1024.6
2023-03-03T07:10:55.110Z,1024.58
2023-03-03T07:11:55.105Z,1024.52
2023-03-03T07:12:55.096Z,1024.49
2023-03-03T07:13:55.106Z,1024.52
2023-03-03T07:14:55.107Z,1024.49
2023-03-03T07:15:55.099Z,1024.43
2023-03-03T07:16:55.191Z,1024.47
2023-03-03T07:17:55.150Z,1024.55
2023-03-03T07:18:55.114Z,1024.47
2023-03-03T07:19:55.156Z,1024.36
2023-03-03T07:20:55.134Z,1024.35
2023-03-03T07:21:55.101Z,1024.39
2023-03-03T07:22:55.109Z,1024.44
2023-03-03T07:23:55.118Z,1024.46
2023-03-03T07:24:55.131Z,1024.44
2023-03-03T07:25:55.166Z,1024.53
2023-03-03T07:26:55.110Z,1024.49
2023-03-03T07:27:55.103Z,1024.54
2023-03-03T07:28:55.112Z,1024.53
2023-03-03T07:29:55.118Z,1024.55
2023-03-03T07:30:55.151Z,1024.55
2023-03-03T07:31:55.177Z,1024.52
2023-03-03T07:32:55.104Z,1024.51
2023-03-03T07:33:55.118Z,1024.55
2023-03-03T07:34:55.122Z,1024.52
2023-03-03T07:35:55.198Z,1024.49
2023-03-03T07:36:55.106Z,1024.51
2023-03-03T07:37:55.113Z,1024.5
2023-03-03T07:38:55.109Z,1024.52
2023-03-03T07:39:55.115Z,1024.53
2023-03-03T07:40:55.120Z,1024.53
2023-03-03T07:41:55.109Z,1024.58
2023-03-03T07:42:55.106Z,1024.61
2023-03-03T07:43:55.152Z,1024.64
2023-03-03T07:44:55.115Z,1024.69
2023-03-03T07:45:55.161Z,1024.65
2023-03-03T07:46:55.117Z,1024.69
2023-03-03T07:47:55.116Z,1024.76
2023-03-03T07:48:55.103Z,1024.81
2023-03-03T07:49:55.124Z,1024.87
2023-03-03T07:50:55.142Z,1024.84
2023-03-03T07:51:55.102Z,1024.9
2023-03-03T07:52:55.118Z,1024.9
2023-03-03T07:53:55.113Z,1024.88
2023-03-03T07:54:55.099Z,1024.85
2023-03-03T07:55:55.124Z,1024.84
2023-03-03T07:56:55.116Z,1024.87
2023-03-03T07:57:56.602Z,1024.82
2023-03-03T07:58:55.105Z,1024.81
2023-03-03T07:59:55.125Z,1024.77
2023-03-03T08:00:55.158Z,1024.8
2023-03-03T08:01:55.113Z,1024.79
2023-03-03T08:02:55.111Z,1024.84
2023-03-03T08:03:55.169Z,1024.81
2023-03-03T08:04:55.255Z,1024.77
2023-03-03T08:05:55.131Z,1024.78
2023-03-03T08:06:55.123Z,1024.78
2023-03-03T08:07:55.118Z,1024.75
2023-03-03T08:08:55.123Z,1024.75
2023-03-03T08:09:55.283Z,1024.76
2023-03-03T08:10:55.155Z,1024.77
2023-03-03T08:11:55.112Z,1024.7
2023-03-03T08:12:55.108Z,1024.75
2023-03-03T08:13:55.102Z,1024.77
2023-03-03T08:14:55.286Z,1024.76
2023-03-03T08:15:55.179Z,1024.75
2023-03-03T08:16:55.107Z,1024.7
2023-03-03T08:17:55.099Z,1024.69
2023-03-03T08:18:55.105Z,1024.67
2023-03-03T08:19:55.122Z,1024.67
2023-03-03T08:20:55.096Z,1024.63
2023-03-03T08:21:55.101Z,1024.63
2023-03-03T08:22:55.089Z,1024.63
2023-03-03T08:23:55.126Z,1024.66
2023-03-03T08:24:55.097Z,1024.64
2023-03-03T08:25:55.094Z,1024.69
2023-03-03T08:26:55.101Z,1024.67
2023-03-03T08:27:55.084Z,1024.77
2023-03-03T08:28:55.094Z,1024.73
2023-03-03T08:29:55.108Z,1024.75
2023-03-03T08:31:08.946Z,1024.71
2023-03-03T08:31:55.156Z,1024.65
2023-03-03T08:32:55.124Z,1024.65
2023-03-03T08:33:55.087Z,1024.68
2023-03-03T08:34:55.186Z,1024.69
2023-03-03T08:35:55.126Z,1024.73
2023-03-03T08:36:55.101Z,1024.7
2023-03-03T08:37:55.089Z,1024.73
2023-03-03T08:38:55.085Z,1024.71
2023-03-03T08:39:55.182Z,1024.74
2023-03-03T08:40:55.199Z,1024.75
2023-03-03T08:41:55.105Z,1024.8
2023-03-03T08:42:55.098Z,1024.8
2023-03-03T08:43:55.092Z,1024.86
2023-03-03T08:44:55.093Z,1024.85
2023-03-03T08:45:55.143Z,1024.81
2023-03-03T08:46:55.107Z,1024.83
2023-03-03T08:47:55.095Z,1024.82
2023-03-03T08:48:55.088Z,1024.84
2023-03-03T08:49:55.108Z,1024.79
2023-03-03T08:50:55.088Z,1024.8
2023-03-03T08:51:55.109Z,1024.77
2023-03-03T08:52:55.097Z,1024.77
2023-03-03T08:53:55.093Z,1024.78
2023-03-03T08:54:55.158Z,1024.73
2023-03-03T08:55:55.100Z,1024.71
2023-03-03T08:56:55.113Z,1024.65
2023-03-03T08:57:55.107Z,1024.65
2023-03-03T08:59:02.476Z,1024.61
2023-03-03T08:59:55.089Z,1024.6
2023-03-03T09:00:55.092Z,1024.65
2023-03-03T09:01:55.158Z,1024.62
2023-03-03T09:02:55.086Z,1024.59
2023-03-03T09:03:55.096Z,1024.6
2023-03-03T09:04:55.106Z,1024.61
2023-03-03T09:05:55.088Z,1024.61
2023-03-03T09:06:55.105Z,1024.61
2023-03-03T09:07:55.104Z,1024.58
2023-03-03T09:08:55.095Z,1024.58
2023-03-03T09:09:55.091Z,1024.5
2023-03-03T09:10:55.093Z,1024.53
2023-03-03T09:11:55.103Z,1024.58
2023-03-03T09:12:55.082Z,1024.55
2023-03-03T09:13:55.098Z,1024.56
2023-03-03T09:14:55.090Z,1024.56
2023-03-03T09:15:55.142Z,1024.57
2023-03-03T09:16:55.110Z,1024.61
2023-03-03T09:17:55.092Z,1024.58
2023-03-03T09:18:55.088Z,1024.58
2023-03-03T09:19:55.111Z,1024.58
2023-03-03T09:20:55.108Z,1024.6
2023-03-03T09:21:55.391Z,1024.62
2023-03-03T09:22:55.094Z,1024.67
2023-03-03T09:23:55.097Z,1024.69
2023-03-03T09:24:55.101Z,1024.75
2023-03-03T09:25:55.102Z,1024.77
2023-03-03T09:26:55.092Z,1024.74
2023-03-03T09:27:55.099Z,1024.79
2023-03-03T09:28:55.094Z,1024.82
2023-03-03T09:29:55.088Z,1024.84
2023-03-03T09:30:55.094Z,1024.88
2023-03-03T09:31:55.246Z,1024.9
2023-03-03T09:32:55.096Z,1024.94
2023-03-03T09:33:55.086Z,1025
2023-03-03T09:34:55.119Z,1024.99
2023-03-03T09:35:55.120Z,1025.07
2023-03-03T09:36:55.119Z,1025.1
2023-03-03T09:37:55.095Z,1025.11
2023-03-03T09:38:55.098Z,1025.12
2023-03-03T09:39:55.136Z,1025.14
2023-03-03T09:40:55.100Z,1025.14
2023-03-03T09:41:55.104Z,1025.15
2023-03-03T09:42:55.101Z,1025.17
2023-03-03T09:43:55.093Z,1025.17
2023-03-03T09:44:55.088Z,1025.21
2023-03-03T09:45:55.094Z,1025.24
2023-03-03T09:46:55.175Z,1025.2
2023-03-03T09:47:55.101Z,1025.23
2023-03-03T09:48:55.090Z,1025.23
2023-03-03T09:49:55.111Z,1025.2
2023-03-03T09:50:55.081Z,1025.19
2023-03-03T09:51:55.096Z,1025.23
2023-03-03T09:52:55.106Z,1025.25
2023-03-03T09:53:55.096Z,1025.19
2023-03-03T09:54:55.090Z,1025.23
2023-03-03T09:55:55.097Z,1025.22
2023-03-03T09:56:55.128Z,1025.23
2023-03-03T09:58:04.691Z,1025.26
2023-03-03T09:58:55.100Z,1025.28
2023-03-03T09:59:55.105Z,1025.27
2023-03-03T10:00:55.073Z,1025.23
2023-03-03T10:01:55.090Z,1025.24
2023-03-03T10:02:56.781Z,1025.29
2023-03-03T10:03:55.170Z,1025.29
2023-03-03T10:04:55.223Z,1025.25
2023-03-03T10:05:55.101Z,1025.27
2023-03-03T10:06:55.192Z,1025.32
2023-03-03T10:07:55.261Z,1025.3
2023-03-03T10:08:55.096Z,1025.3
2023-03-03T10:09:55.093Z,1025.33
2023-03-03T10:10:55.614Z,1025.31
2023-03-03T10:11:55.088Z,1025.32
2023-03-03T10:12:55.100Z,1025.28
2023-03-03T10:13:55.094Z,1025.3
2023-03-03T10:14:55.102Z,1025.31
2023-03-03T10:15:55.091Z,1025.27
2023-03-03T10:16:55.103Z,1025.25
2023-03-03T10:17:55.105Z,1025.23
2023-03-03T10:18:55.203Z,1025.22
2023-03-03T10:19:55.122Z,1025.22
2023-03-03T10:20:55.099Z,1025.23
2023-03-03T10:21:55.104Z,1025.25
2023-03-03T10:22:55.102Z,1025.23
2023-03-03T10:23:58.308Z,1025.21
2023-03-03T10:24:55.087Z,1025.2
2023-03-03T10:25:55.088Z,1025.23
2023-03-03T10:27:11.746Z,1025.24
2023-03-03T10:27:55.665Z,1025.25
2023-03-03T10:28:55.081Z,1025.26
2023-03-03T10:29:55.096Z,1025.26
2023-03-03T10:31:05.682Z,1025.3
2023-03-03T10:31:55.304Z,1025.29
2023-03-03T10:32:55.360Z,1025.31
2023-03-03T10:33:55.261Z,1025.32
2023-03-03T10:34:55.120Z,1025.3
2023-03-03T10:36:06.591Z,1025.31
2023-03-03T10:36:55.097Z,1025.33
2023-03-03T10:37:55.110Z,1025.3
2023-03-03T10:38:55.085Z,1025.32
2023-03-03T10:39:55.087Z,1025.33
2023-03-03T10:40:55.097Z,1025.32
2023-03-03T10:41:55.100Z,1025.33
2023-03-03T10:42:55.123Z,1025.28
2023-03-03T10:43:55.088Z,1025.28
2023-03-03T10:44:55.090Z,1025.23
2023-03-03T10:45:55.139Z,1025.2
2023-03-03T10:46:55.115Z,1025.19
2023-03-03T10:47:55.102Z,1025.2
2023-03-03T10:48:55.109Z,1025.19
2023-03-03T10:49:55.093Z,1025.17
2023-03-03T10:50:55.108Z,1025.15
2023-03-03T10:51:55.089Z,1025.17
2023-03-03T10:52:55.112Z,1025.13
2023-03-03T10:53:55.095Z,1025.16
2023-03-03T10:54:55.092Z,1025.17
2023-03-03T10:55:55.090Z,1025.13
2023-03-03T10:56:55.094Z,1025.17
2023-03-03T10:57:55.131Z,1025.11
2023-03-03T10:58:55.165Z,1025.13
2023-03-03T10:59:55.088Z,1025.11
2023-03-03T11:00:55.119Z,1025.14
2023-03-03T11:01:55.088Z,1025.17
2023-03-03T11:02:55.107Z,1025.21
2023-03-03T11:03:55.104Z,1025.2
2023-03-03T11:04:55.128Z,1025.23
2023-03-03T11:05:55.112Z,1025.24
2023-03-03T11:06:55.087Z,1025.25
2023-03-03T11:07:55.129Z,1025.23
2023-03-03T11:08:55.112Z,1025.23
2023-03-03T11:09:55.093Z,1025.25
2023-03-03T11:10:55.088Z,1025.26
2023-03-03T11:11:55.098Z,1025.28
2023-03-03T11:12:55.102Z,1025.25
2023-03-03T11:13:55.099Z,1025.23
2023-03-03T11:14:55.103Z,1025.22
2023-03-03T11:15:55.087Z,1025.22
2023-03-03T11:16:55.150Z,1025.22
2023-03-03T11:17:55.112Z,1025.2
2023-03-03T11:18:55.117Z,1025.2
2023-03-03T11:19:55.119Z,1025.15
2023-03-03T11:20:55.093Z,1025.17
2023-03-03T11:21:55.169Z,1025.14
2023-03-03T11:22:55.103Z,1025.14
2023-03-03T11:23:55.093Z,1025.14
2023-03-03T11:24:55.097Z,1025.15
2023-03-03T11:25:55.094Z,1025.16
2023-03-03T11:26:55.100Z,1025.13
2023-03-03T11:27:55.105Z,1025.13
2023-03-03T11:28:55.100Z,1025.16
2023-03-03T11:29:55.091Z,1025.16
2023-03-03T11:30:55.118Z,1025.12
2023-03-03T11:31:55.127Z,1025.11
2023-03-03T11:32:55.117Z,1025.07
2023-03-03T11:33:55.084Z,1025.07
2023-03-03T11:34:55.098Z,1025.07
2023-03-03T11:35:55.166Z,1025.06
2023-03-03T11:36:55.106Z,1025.09
2023-03-03T11:37:55.385Z,1025.05
2023-03-03T11:38:55.086Z,1025.06
2023-03-03T11:39:55.086Z,1025.08
2023-03-03T11:40:55.095Z,1025.1
2023-03-03T11:41:55.099Z,1025.12
2023-03-03T11:42:55.117Z,1025.1
2023-03-03T11:43:55.096Z,1025.09
2023-03-03T11:44:55.091Z,1025.08
2023-03-03T11:45:55.115Z,1025.06
2023-03-03T11:46:55.099Z,1025.12
2023-03-03T11:47:55.100Z,1025.1
2023-03-03T11:48:55.096Z,1025.08
2023-03-03T11:49:55.137Z,1025.05
2023-03-03T11:50:55.099Z,1025.06
2023-03-03T11:51:55.090Z,1025.06
2023-03-03T11:52:55.103Z,1025.06
2023-03-03T11:53:55.112Z,1025.04
2023-03-03T11:54:55.097Z,1025.06
2023-03-03T11:55:55.099Z,1025.04
2023-03-03T11:56:55.092Z,1025.04
2023-03-03T11:57:55.097Z,1025.07
2023-03-03T11:58:55.098Z,1025.03
2023-03-03T11:59:55.086Z,1025.03
2023-03-03T12:00:55.097Z,1025.02
2023-03-03T12:01:55.091Z,1025.04
2023-03-03T12:02:55.146Z,1024.96
2023-03-03T12:03:55.125Z,1024.92
2023-03-03T12:04:55.113Z,1024.91
2023-03-03T12:05:55.159Z,1024.94
2023-03-03T12:06:55.086Z,1024.9
2023-03-03T12:07:55.102Z,1024.9
2023-03-03T12:08:55.097Z,1024.9